sensor_id;sensor_type;location;lat;lon;timestamp;P1;durP1;ratioP1;P2;durP2;ratioP2
74707;SDS011;63360;50.104;8.074;2023-07-29T00:02:14;2.25;;;1.50;;
74707;SDS011;63360;50.104;8.074;2023-07-29T00:04:41;3.35;;;1.90;;
74707;SDS011;63360;50.104;8.074;2023-07-29T00:07:07;3.95;;;1.70;;
74707;SDS011;63360;50.104;8.074;2023-07-29T00:09:34;2.10;;;1.48;;
74707;SDS011;63360;50.104;8.074;2023-07-29T00:12:00;5.13;;;1.60;;
74707;SDS011;63360;50.104;8.074;2023-07-29T00:14:26;3.20;;;1.70;;
74707;SDS011;63360;50.104;8.074;2023-07-29T00:16:53;3.75;;;1.70;;
74707;SDS011;63360;50.104;8.074;2023-07-29T00:19:19;4.60;;;1.80;;
74707;SDS011;63360;50.104;8.074;2023-07-29T00:21:49;5.47;;;1.60;;
74707;SDS011;63360;50.104;8.074;2023-07-29T00:24:16;7.17;;;2.10;;
74707;SDS011;63360;50.104;8.074;2023-07-29T00:26:42;4.90;;;1.90;;
74707;SDS011;63360;50.104;8.074;2023-07-29T00:29:08;2.60;;;1.77;;
74707;SDS011;63360;50.104;8.074;2023-07-29T00:31:35;5.28;;;2.10;;
74707;SDS011;63360;50.104;8.074;2023-07-29T00:34:01;3.90;;;2.80;;
74707;SDS011;63360;50.104;8.074;2023-07-29T00:36:28;6.60;;;2.80;;
74707;SDS011;63360;50.104;8.074;2023-07-29T00:38:54;4.07;;;2.50;;
74707;SDS011;63360;50.104;8.074;2023-07-29T00:41:23;5.75;;;2.90;;
74707;SDS011;63360;50.104;8.074;2023-07-29T00:43:51;4.85;;;2.85;;
74707;SDS011;63360;50.104;8.074;2023-07-29T00:46:17;4.82;;;3.30;;
74707;SDS011;63360;50.104;8.074;2023-07-29T00:48:45;6.27;;;3.33;;
74707;SDS011;63360;50.104;8.074;2023-07-29T00:51:12;3.63;;;2.67;;
74707;SDS011;63360;50.104;8.074;2023-07-29T00:53:38;5.60;;;3.20;;
74707;SDS011;63360;50.104;8.074;2023-07-29T00:56:05;5.03;;;3.20;;
74707;SDS011;63360;50.104;8.074;2023-07-29T00:58:32;5.93;;;3.40;;
74707;SDS011;63360;50.104;8.074;2023-07-29T01:00:59;5.40;;;3.70;;
74707;SDS011;63360;50.104;8.074;2023-07-29T01:03:25;5.28;;;3.25;;
74707;SDS011;63360;50.104;8.074;2023-07-29T01:05:58;4.68;;;3.28;;
74707;SDS011;63360;50.104;8.074;2023-07-29T01:08:37;5.82;;;3.28;;
74707;SDS011;63360;50.104;8.074;2023-07-29T01:11:20;4.60;;;3.00;;
74707;SDS011;63360;50.104;8.074;2023-07-29T01:14:00;4.97;;;3.37;;
74707;SDS011;63360;50.104;8.074;2023-07-29T01:16:45;4.95;;;3.15;;
74707;SDS011;63360;50.104;8.074;2023-07-29T01:19:28;4.40;;;3.10;;
74707;SDS011;63360;50.104;8.074;2023-07-29T01:22:06;6.07;;;3.10;;
74707;SDS011;63360;50.104;8.074;2023-07-29T01:24:34;8.15;;;3.40;;
74707;SDS011;63360;50.104;8.074;2023-07-29T01:27:00;6.37;;;3.40;;
74707;SDS011;63360;50.104;8.074;2023-07-29T01:29:27;4.68;;;3.28;;
74707;SDS011;63360;50.104;8.074;2023-07-29T01:31:54;5.60;;;3.42;;
74707;SDS011;63360;50.104;8.074;2023-07-29T01:34:32;6.10;;;3.10;;
74707;SDS011;63360;50.104;8.074;2023-07-29T01:37:05;5.45;;;3.60;;
74707;SDS011;63360;50.104;8.074;2023-07-29T01:39:37;5.30;;;3.37;;
74707;SDS011;63360;50.104;8.074;2023-07-29T01:42:04;7.22;;;3.50;;
74707;SDS011;63360;50.104;8.074;2023-07-29T01:44:32;6.32;;;3.53;;
74707;SDS011;63360;50.104;8.074;2023-07-29T01:46:59;5.82;;;4.18;;
74707;SDS011;63360;50.104;8.074;2023-07-29T01:49:26;6.15;;;3.40;;
74707;SDS011;63360;50.104;8.074;2023-07-29T01:51:52;6.23;;;3.80;;
74707;SDS011;63360;50.104;8.074;2023-07-29T01:54:19;5.47;;;3.83;;
74707;SDS011;63360;50.104;8.074;2023-07-29T01:56:46;5.15;;;3.55;;
74707;SDS011;63360;50.104;8.074;2023-07-29T01:59:12;8.10;;;4.90;;
74707;SDS011;63360;50.104;8.074;2023-07-29T02:01:40;6.10;;;4.07;;
74707;SDS011;63360;50.104;8.074;2023-07-29T02:04:06;9.00;;;4.97;;
74707;SDS011;63360;50.104;8.074;2023-07-29T02:06:33;7.65;;;5.20;;
74707;SDS011;63360;50.104;8.074;2023-07-29T02:09:00;7.72;;;4.90;;
74707;SDS011;63360;50.104;8.074;2023-07-29T02:11:26;6.97;;;4.68;;
74707;SDS011;63360;50.104;8.074;2023-07-29T02:13:54;9.07;;;4.70;;
74707;SDS011;63360;50.104;8.074;2023-07-29T02:16:21;6.63;;;4.47;;
74707;SDS011;63360;50.104;8.074;2023-07-29T02:18:51;8.95;;;4.95;;
74707;SDS011;63360;50.104;8.074;2023-07-29T02:21:21;7.40;;;4.00;;
74707;SDS011;63360;50.104;8.074;2023-07-29T02:23:47;6.07;;;4.28;;
74707;SDS011;63360;50.104;8.074;2023-07-29T02:26:14;6.32;;;3.90;;
74707;SDS011;63360;50.104;8.074;2023-07-29T02:28:40;7.00;;;4.03;;
74707;SDS011;63360;50.104;8.074;2023-07-29T02:33:50;4.97;;;3.85;;
74707;SDS011;63360;50.104;8.074;2023-07-29T02:36:17;7.28;;;4.10;;
74707;SDS011;63360;50.104;8.074;2023-07-29T02:38:44;6.30;;;4.07;;
74707;SDS011;63360;50.104;8.074;2023-07-29T02:41:10;7.30;;;3.50;;
74707;SDS011;63360;50.104;8.074;2023-07-29T02:43:42;7.45;;;3.92;;
74707;SDS011;63360;50.104;8.074;2023-07-29T02:46:09;7.05;;;3.80;;
74707;SDS011;63360;50.104;8.074;2023-07-29T02:48:36;5.47;;;3.65;;
74707;SDS011;63360;50.104;8.074;2023-07-29T02:51:02;6.90;;;4.45;;
74707;SDS011;63360;50.104;8.074;2023-07-29T02:53:29;5.17;;;3.77;;
74707;SDS011;63360;50.104;8.074;2023-07-29T02:55:55;8.02;;;4.70;;
74707;SDS011;63360;50.104;8.074;2023-07-29T02:58:22;7.88;;;4.70;;
74707;SDS011;63360;50.104;8.074;2023-07-29T03:00:48;6.82;;;4.53;;
74707;SDS011;63360;50.104;8.074;2023-07-29T03:03:15;6.75;;;4.20;;
74707;SDS011;63360;50.104;8.074;2023-07-29T03:05:42;7.50;;;4.23;;
74707;SDS011;63360;50.104;8.074;2023-07-29T03:08:08;5.82;;;4.20;;
74707;SDS011;63360;50.104;8.074;2023-07-29T03:10:35;6.72;;;4.53;;
74707;SDS011;63360;50.104;8.074;2023-07-29T03:13:02;8.30;;;4.50;;
74707;SDS011;63360;50.104;8.074;2023-07-29T03:15:29;8.93;;;4.88;;
74707;SDS011;63360;50.104;8.074;2023-07-29T03:17:55;9.03;;;5.00;;
74707;SDS011;63360;50.104;8.074;2023-07-29T03:20:22;5.85;;;3.88;;
74707;SDS011;63360;50.104;8.074;2023-07-29T03:22:48;6.30;;;4.43;;
74707;SDS011;63360;50.104;8.074;2023-07-29T03:25:15;8.63;;;4.38;;
74707;SDS011;63360;50.104;8.074;2023-07-29T03:27:41;8.18;;;4.65;;
74707;SDS011;63360;50.104;8.074;2023-07-29T03:30:08;8.00;;;4.60;;
74707;SDS011;63360;50.104;8.074;2023-07-29T03:32:35;7.40;;;5.00;;
74707;SDS011;63360;50.104;8.074;2023-07-29T03:35:02;8.13;;;5.10;;
74707;SDS011;63360;50.104;8.074;2023-07-29T03:37:28;8.43;;;4.30;;
74707;SDS011;63360;50.104;8.074;2023-07-29T03:39:55;7.93;;;5.05;;
74707;SDS011;63360;50.104;8.074;2023-07-29T03:42:21;7.10;;;4.07;;
74707;SDS011;63360;50.104;8.074;2023-07-29T03:44:47;7.65;;;4.82;;
74707;SDS011;63360;50.104;8.074;2023-07-29T03:47:14;6.40;;;4.30;;
74707;SDS011;63360;50.104;8.074;2023-07-29T03:49:40;6.70;;;4.43;;
74707;SDS011;63360;50.104;8.074;2023-07-29T03:52:07;6.03;;;3.92;;
74707;SDS011;63360;50.104;8.074;2023-07-29T03:54:33;8.03;;;4.17;;
74707;SDS011;63360;50.104;8.074;2023-07-29T03:57:00;7.45;;;4.07;;
74707;SDS011;63360;50.104;8.074;2023-07-29T03:59:26;6.63;;;4.28;;
74707;SDS011;63360;50.104;8.074;2023-07-29T04:01:53;6.60;;;3.90;;
74707;SDS011;63360;50.104;8.074;2023-07-29T04:04:19;4.75;;;3.50;;
74707;SDS011;63360;50.104;8.074;2023-07-29T04:06:46;4.57;;;3.33;;
74707;SDS011;63360;50.104;8.074;2023-07-29T04:09:13;4.90;;;3.42;;
74707;SDS011;63360;50.104;8.074;2023-07-29T04:11:39;5.32;;;3.42;;
74707;SDS011;63360;50.104;8.074;2023-07-29T04:14:06;4.47;;;3.00;;
74707;SDS011;63360;50.104;8.074;2023-07-29T04:16:32;4.93;;;3.25;;
74707;SDS011;63360;50.104;8.074;2023-07-29T04:18:59;5.93;;;3.07;;
74707;SDS011;63360;50.104;8.074;2023-07-29T04:21:25;5.85;;;3.75;;
74707;SDS011;63360;50.104;8.074;2023-07-29T04:23:52;4.88;;;3.28;;
74707;SDS011;63360;50.104;8.074;2023-07-29T04:26:18;5.55;;;3.00;;
74707;SDS011;63360;50.104;8.074;2023-07-29T04:28:45;7.60;;;3.70;;
74707;SDS011;63360;50.104;8.074;2023-07-29T04:31:11;6.70;;;3.60;;
74707;SDS011;63360;50.104;8.074;2023-07-29T04:33:38;7.15;;;3.65;;
74707;SDS011;63360;50.104;8.074;2023-07-29T04:36:04;4.30;;;3.10;;
74707;SDS011;63360;50.104;8.074;2023-07-29T04:38:31;5.22;;;3.85;;
74707;SDS011;63360;50.104;8.074;2023-07-29T04:40:59;5.68;;;3.90;;
74707;SDS011;63360;50.104;8.074;2023-07-29T04:43:28;5.47;;;3.37;;
74707;SDS011;63360;50.104;8.074;2023-07-29T04:45:57;5.22;;;3.60;;
74707;SDS011;63360;50.104;8.074;2023-07-29T04:48:23;6.13;;;3.35;;
74707;SDS011;63360;50.104;8.074;2023-07-29T04:50:50;5.75;;;3.45;;
74707;SDS011;63360;50.104;8.074;2023-07-29T04:53:16;4.30;;;3.33;;
74707;SDS011;63360;50.104;8.074;2023-07-29T04:55:42;5.33;;;3.40;;
74707;SDS011;63360;50.104;8.074;2023-07-29T04:58:09;6.85;;;3.20;;
74707;SDS011;63360;50.104;8.074;2023-07-29T05:00:36;5.45;;;3.08;;
74707;SDS011;63360;50.104;8.074;2023-07-29T05:03:02;6.53;;;2.97;;
74707;SDS011;63360;50.104;8.074;2023-07-29T05:05:29;5.13;;;3.40;;
74707;SDS011;63360;50.104;8.074;2023-07-29T05:07:55;6.20;;;3.33;;
74707;SDS011;63360;50.104;8.074;2023-07-29T05:10:22;5.50;;;3.45;;
74707;SDS011;63360;50.104;8.074;2023-07-29T05:12:48;6.22;;;3.25;;
74707;SDS011;63360;50.104;8.074;2023-07-29T05:15:14;4.65;;;3.50;;
74707;SDS011;63360;50.104;8.074;2023-07-29T05:17:41;4.50;;;3.20;;
74707;SDS011;63360;50.104;8.074;2023-07-29T05:20:08;5.13;;;3.30;;
74707;SDS011;63360;50.104;8.074;2023-07-29T05:22:34;4.30;;;3.00;;
74707;SDS011;63360;50.104;8.074;2023-07-29T05:25:01;6.53;;;3.47;;
74707;SDS011;63360;50.104;8.074;2023-07-29T05:27:27;7.30;;;3.00;;
74707;SDS011;63360;50.104;8.074;2023-07-29T05:29:54;3.85;;;2.90;;
74707;SDS011;63360;50.104;8.074;2023-07-29T05:32:20;3.40;;;2.70;;
74707;SDS011;63360;50.104;8.074;2023-07-29T05:34:47;3.60;;;2.78;;
74707;SDS011;63360;50.104;8.074;2023-07-29T05:37:13;3.90;;;2.97;;
74707;SDS011;63360;50.104;8.074;2023-07-29T05:39:40;3.63;;;2.95;;
74707;SDS011;63360;50.104;8.074;2023-07-29T05:42:06;6.28;;;3.45;;
74707;SDS011;63360;50.104;8.074;2023-07-29T05:44:33;7.90;;;3.87;;
74707;SDS011;63360;50.104;8.074;2023-07-29T05:46:59;5.85;;;3.10;;
74707;SDS011;63360;50.104;8.074;2023-07-29T05:49:25;6.97;;;3.13;;
74707;SDS011;63360;50.104;8.074;2023-07-29T05:51:52;6.28;;;2.90;;
74707;SDS011;63360;50.104;8.074;2023-07-29T05:54:19;4.80;;;3.00;;
74707;SDS011;63360;50.104;8.074;2023-07-29T05:56:46;4.67;;;2.90;;
74707;SDS011;63360;50.104;8.074;2023-07-29T05:59:12;5.35;;;2.95;;
74707;SDS011;63360;50.104;8.074;2023-07-29T06:01:39;5.05;;;3.13;;
74707;SDS011;63360;50.104;8.074;2023-07-29T06:04:05;4.82;;;2.92;;
74707;SDS011;63360;50.104;8.074;2023-07-29T06:06:31;5.47;;;2.90;;
74707;SDS011;63360;50.104;8.074;2023-07-29T06:08:58;6.80;;;3.10;;
74707;SDS011;63360;50.104;8.074;2023-07-29T06:11:26;10.98;;;3.88;;
74707;SDS011;63360;50.104;8.074;2023-07-29T06:13:52;6.88;;;3.67;;
74707;SDS011;63360;50.104;8.074;2023-07-29T06:16:18;5.93;;;3.88;;
74707;SDS011;63360;50.104;8.074;2023-07-29T06:18:45;5.10;;;3.38;;
74707;SDS011;63360;50.104;8.074;2023-07-29T06:21:12;8.13;;;3.53;;
74707;SDS011;63360;50.104;8.074;2023-07-29T06:23:43;5.95;;;3.42;;
74707;SDS011;63360;50.104;8.074;2023-07-29T06:26:10;5.78;;;3.35;;
74707;SDS011;63360;50.104;8.074;2023-07-29T06:28:36;4.60;;;3.30;;
74707;SDS011;63360;50.104;8.074;2023-07-29T06:31:03;4.97;;;3.42;;
74707;SDS011;63360;50.104;8.074;2023-07-29T06:33:30;6.10;;;3.37;;
74707;SDS011;63360;50.104;8.074;2023-07-29T06:35:56;6.80;;;4.40;;
74707;SDS011;63360;50.104;8.074;2023-07-29T06:38:23;5.75;;;4.25;;
74707;SDS011;63360;50.104;8.074;2023-07-29T06:40:49;6.72;;;4.30;;
74707;SDS011;63360;50.104;8.074;2023-07-29T06:43:16;7.05;;;4.10;;
74707;SDS011;63360;50.104;8.074;2023-07-29T06:45:43;8.37;;;4.13;;
74707;SDS011;63360;50.104;8.074;2023-07-29T06:48:09;8.88;;;4.50;;
74707;SDS011;63360;50.104;8.074;2023-07-29T06:50:36;11.65;;;4.20;;
74707;SDS011;63360;50.104;8.074;2023-07-29T06:53:02;6.60;;;4.05;;
74707;SDS011;63360;50.104;8.074;2023-07-29T06:55:29;6.55;;;4.20;;
74707;SDS011;63360;50.104;8.074;2023-07-29T06:57:55;8.63;;;4.00;;
74707;SDS011;63360;50.104;8.074;2023-07-29T07:00:22;8.90;;;4.20;;
74707;SDS011;63360;50.104;8.074;2023-07-29T07:02:48;5.13;;;3.40;;
74707;SDS011;63360;50.104;8.074;2023-07-29T07:05:15;5.60;;;3.40;;
74707;SDS011;63360;50.104;8.074;2023-07-29T07:07:41;4.95;;;3.20;;
74707;SDS011;63360;50.104;8.074;2023-07-29T07:10:08;4.23;;;2.83;;
74707;SDS011;63360;50.104;8.074;2023-07-29T07:12:35;4.47;;;2.63;;
74707;SDS011;63360;50.104;8.074;2023-07-29T07:15:01;3.65;;;2.55;;
74707;SDS011;63360;50.104;8.074;2023-07-29T07:17:28;3.88;;;2.78;;
74707;SDS011;63360;50.104;8.074;2023-07-29T07:19:55;4.28;;;2.80;;
74707;SDS011;63360;50.104;8.074;2023-07-29T07:22:21;5.40;;;2.70;;
74707;SDS011;63360;50.104;8.074;2023-07-29T07:24:48;3.25;;;2.38;;
74707;SDS011;63360;50.104;8.074;2023-07-29T07:27:14;3.83;;;2.88;;
74707;SDS011;63360;50.104;8.074;2023-07-29T07:29:40;4.18;;;2.50;;
74707;SDS011;63360;50.104;8.074;2023-07-29T07:32:07;5.53;;;2.78;;
74707;SDS011;63360;50.104;8.074;2023-07-29T07:34:34;3.40;;;2.70;;
74707;SDS011;63360;50.104;8.074;2023-07-29T07:37:00;3.47;;;2.40;;
74707;SDS011;63360;50.104;8.074;2023-07-29T07:39:27;3.50;;;2.40;;
74707;SDS011;63360;50.104;8.074;2023-07-29T07:41:53;4.32;;;2.33;;
74707;SDS011;63360;50.104;8.074;2023-07-29T07:44:20;3.70;;;2.80;;
74707;SDS011;63360;50.104;8.074;2023-07-29T07:46:47;3.23;;;2.40;;
74707;SDS011;63360;50.104;8.074;2023-07-29T07:49:13;3.10;;;2.45;;
74707;SDS011;63360;50.104;8.074;2023-07-29T07:51:40;4.13;;;2.53;;
74707;SDS011;63360;50.104;8.074;2023-07-29T07:54:07;3.88;;;2.58;;
74707;SDS011;63360;50.104;8.074;2023-07-29T07:56:33;4.55;;;2.33;;
74707;SDS011;63360;50.104;8.074;2023-07-29T07:59:01;3.50;;;2.47;;
74707;SDS011;63360;50.104;8.074;2023-07-29T08:01:27;3.70;;;2.17;;
74707;SDS011;63360;50.104;8.074;2023-07-29T08:03:53;3.70;;;2.10;;
74707;SDS011;63360;50.104;8.074;2023-07-29T08:06:20;3.30;;;2.13;;
74707;SDS011;63360;50.104;8.074;2023-07-29T08:08:47;3.53;;;2.15;;
74707;SDS011;63360;50.104;8.074;2023-07-29T08:11:13;2.53;;;1.90;;
74707;SDS011;63360;50.104;8.074;2023-07-29T08:13:40;2.42;;;1.90;;
74707;SDS011;63360;50.104;8.074;2023-07-29T08:16:06;2.75;;;1.92;;
74707;SDS011;63360;50.104;8.074;2023-07-29T08:18:33;3.72;;;1.75;;
74707;SDS011;63360;50.104;8.074;2023-07-29T08:21:00;2.20;;;1.77;;
74707;SDS011;63360;50.104;8.074;2023-07-29T08:23:30;3.00;;;1.70;;
74707;SDS011;63360;50.104;8.074;2023-07-29T08:25:57;2.47;;;1.90;;
74707;SDS011;63360;50.104;8.074;2023-07-29T08:28:31;2.00;;;1.50;;
74707;SDS011;63360;50.104;8.074;2023-07-29T08:30:59;2.38;;;1.73;;
74707;SDS011;63360;50.104;8.074;2023-07-29T08:33:26;1.90;;;1.45;;
74707;SDS011;63360;50.104;8.074;2023-07-29T08:35:52;2.40;;;1.97;;
74707;SDS011;63360;50.104;8.074;2023-07-29T08:38:19;2.35;;;1.85;;
74707;SDS011;63360;50.104;8.074;2023-07-29T08:40:50;2.13;;;1.60;;
74707;SDS011;63360;50.104;8.074;2023-07-29T08:43:25;3.13;;;2.00;;
74707;SDS011;63360;50.104;8.074;2023-07-29T08:45:58;2.17;;;1.40;;
74707;SDS011;63360;50.104;8.074;2023-07-29T08:48:40;2.43;;;1.53;;
74707;SDS011;63360;50.104;8.074;2023-07-29T08:51:08;1.88;;;1.35;;
74707;SDS011;63360;50.104;8.074;2023-07-29T08:53:36;2.35;;;1.40;;
74707;SDS011;63360;50.104;8.074;2023-07-29T08:56:03;3.45;;;1.23;;
74707;SDS011;63360;50.104;8.074;2023-07-29T08:58:31;2.80;;;1.40;;
74707;SDS011;63360;50.104;8.074;2023-07-29T09:00:58;2.33;;;1.50;;
74707;SDS011;63360;50.104;8.074;2023-07-29T09:03:24;1.90;;;1.40;;
74707;SDS011;63360;50.104;8.074;2023-07-29T09:05:51;2.60;;;1.90;;
74707;SDS011;63360;50.104;8.074;2023-07-29T09:08:19;3.22;;;1.20;;
74707;SDS011;63360;50.104;8.074;2023-07-29T09:10:45;2.03;;;0.80;;
74707;SDS011;63360;50.104;8.074;2023-07-29T09:13:12;1.77;;;0.90;;
74707;SDS011;63360;50.104;8.074;2023-07-29T09:15:38;2.22;;;0.98;;
74707;SDS011;63360;50.104;8.074;2023-07-29T09:18:15;2.38;;;1.05;;
74707;SDS011;63360;50.104;8.074;2023-07-29T09:20:43;3.17;;;1.30;;
74707;SDS011;63360;50.104;8.074;2023-07-29T09:23:10;2.33;;;0.95;;
74707;SDS011;63360;50.104;8.074;2023-07-29T09:25:37;1.57;;;1.00;;
74707;SDS011;63360;50.104;8.074;2023-07-29T09:28:13;2.92;;;1.25;;
74707;SDS011;63360;50.104;8.074;2023-07-29T09:30:42;2.40;;;1.20;;
74707;SDS011;63360;50.104;8.074;2023-07-29T09:33:11;2.55;;;1.20;;
74707;SDS011;63360;50.104;8.074;2023-07-29T09:35:38;1.83;;;1.00;;
74707;SDS011;63360;50.104;8.074;2023-07-29T09:38:05;2.23;;;1.20;;
74707;SDS011;63360;50.104;8.074;2023-07-29T09:40:36;2.25;;;1.20;;
74707;SDS011;63360;50.104;8.074;2023-07-29T09:43:04;2.83;;;1.30;;
74707;SDS011;63360;50.104;8.074;2023-07-29T09:45:32;1.83;;;1.20;;
74707;SDS011;63360;50.104;8.074;2023-07-29T09:48:00;2.67;;;1.60;;
74707;SDS011;63360;50.104;8.074;2023-07-29T09:50:27;2.57;;;1.47;;
74707;SDS011;63360;50.104;8.074;2023-07-29T09:52:54;2.22;;;1.30;;
74707;SDS011;63360;50.104;8.074;2023-07-29T09:55:22;3.10;;;1.30;;
74707;SDS011;63360;50.104;8.074;2023-07-29T09:57:59;3.25;;;1.58;;
74707;SDS011;63360;50.104;8.074;2023-07-29T10:00:28;4.00;;;1.40;;
74707;SDS011;63360;50.104;8.074;2023-07-29T10:02:55;4.53;;;1.50;;
74707;SDS011;63360;50.104;8.074;2023-07-29T10:05:25;2.75;;;1.20;;
74707;SDS011;63360;50.104;8.074;2023-07-29T10:07:53;3.33;;;1.30;;
74707;SDS011;63360;50.104;8.074;2023-07-29T10:10:20;3.83;;;1.35;;
74707;SDS011;63360;50.104;8.074;2023-07-29T10:12:47;2.25;;;1.10;;
74707;SDS011;63360;50.104;8.074;2023-07-29T10:15:15;2.40;;;1.23;;
74707;SDS011;63360;50.104;8.074;2023-07-29T10:17:43;3.47;;;1.10;;
74707;SDS011;63360;50.104;8.074;2023-07-29T10:20:14;2.75;;;1.05;;
74707;SDS011;63360;50.104;8.074;2023-07-29T10:22:42;1.98;;;1.10;;
74707;SDS011;63360;50.104;8.074;2023-07-29T10:25:15;1.90;;;1.35;;
74707;SDS011;63360;50.104;8.074;2023-07-29T10:27:47;2.90;;;1.20;;
74707;SDS011;63360;50.104;8.074;2023-07-29T10:30:23;2.53;;;1.40;;
74707;SDS011;63360;50.104;8.074;2023-07-29T10:32:50;2.20;;;1.30;;
74707;SDS011;63360;50.104;8.074;2023-07-29T10:35:18;5.50;;;1.40;;
74707;SDS011;63360;50.104;8.074;2023-07-29T10:37:45;2.85;;;1.23;;
74707;SDS011;63360;50.104;8.074;2023-07-29T10:40:12;2.03;;;1.40;;
74707;SDS011;63360;50.104;8.074;2023-07-29T10:42:39;3.60;;;1.30;;
74707;SDS011;63360;50.104;8.074;2023-07-29T10:45:26;3.25;;;1.10;;
74707;SDS011;63360;50.104;8.074;2023-07-29T10:48:04;3.45;;;1.30;;
74707;SDS011;63360;50.104;8.074;2023-07-29T10:50:32;2.35;;;1.20;;
74707;SDS011;63360;50.104;8.074;2023-07-29T10:52:58;3.93;;;1.20;;
74707;SDS011;63360;50.104;8.074;2023-07-29T10:55:26;3.35;;;1.00;;
74707;SDS011;63360;50.104;8.074;2023-07-29T10:58:07;2.33;;;1.20;;
74707;SDS011;63360;50.104;8.074;2023-07-29T11:00:45;1.70;;;1.10;;
74707;SDS011;63360;50.104;8.074;2023-07-29T11:03:13;2.47;;;1.08;;
74707;SDS011;63360;50.104;8.074;2023-07-29T11:05:44;3.53;;;1.20;;
74707;SDS011;63360;50.104;8.074;2023-07-29T11:08:20;3.33;;;1.00;;
74707;SDS011;63360;50.104;8.074;2023-07-29T11:11:01;2.60;;;1.10;;
74707;SDS011;63360;50.104;8.074;2023-07-29T11:13:35;1.83;;;1.20;;
74707;SDS011;63360;50.104;8.074;2023-07-29T11:16:03;2.42;;;1.13;;
74707;SDS011;63360;50.104;8.074;2023-07-29T11:18:32;3.00;;;1.07;;
74707;SDS011;63360;50.104;8.074;2023-07-29T11:21:03;2.03;;;1.20;;
74707;SDS011;63360;50.104;8.074;2023-07-29T11:23:34;2.58;;;1.10;;
74707;SDS011;63360;50.104;8.074;2023-07-29T11:26:02;2.00;;;1.10;;
74707;SDS011;63360;50.104;8.074;2023-07-29T11:28:29;1.67;;;1.05;;
74707;SDS011;63360;50.104;8.074;2023-07-29T11:30:56;2.30;;;1.27;;
74707;SDS011;63360;50.104;8.074;2023-07-29T11:33:24;2.00;;;1.05;;
74707;SDS011;63360;50.104;8.074;2023-07-29T11:35:54;3.15;;;1.17;;
74707;SDS011;63360;50.104;8.074;2023-07-29T11:38:21;1.83;;;1.13;;
74707;SDS011;63360;50.104;8.074;2023-07-29T11:40:55;2.35;;;1.23;;
74707;SDS011;63360;50.104;8.074;2023-07-29T11:43:23;2.37;;;1.20;;
74707;SDS011;63360;50.104;8.074;2023-07-29T11:45:50;1.60;;;1.08;;
74707;SDS011;63360;50.104;8.074;2023-07-29T11:48:18;2.88;;;1.40;;
74707;SDS011;63360;50.104;8.074;2023-07-29T11:50:45;2.10;;;1.10;;
74707;SDS011;63360;50.104;8.074;2023-07-29T11:53:11;2.83;;;1.25;;
74707;SDS011;63360;50.104;8.074;2023-07-29T11:55:42;3.40;;;1.10;;
74707;SDS011;63360;50.104;8.074;2023-07-29T11:58:08;3.58;;;1.20;;
74707;SDS011;63360;50.104;8.074;2023-07-29T12:00:36;3.30;;;1.20;;
74707;SDS011;63360;50.104;8.074;2023-07-29T12:03:04;3.40;;;1.10;;
74707;SDS011;63360;50.104;8.074;2023-07-29T12:05:30;5.00;;;1.20;;
74707;SDS011;63360;50.104;8.074;2023-07-29T12:07:57;1.87;;;1.10;;
74707;SDS011;63360;50.104;8.074;2023-07-29T12:10:25;1.70;;;1.10;;
74707;SDS011;63360;50.104;8.074;2023-07-29T12:12:51;2.45;;;1.30;;
74707;SDS011;63360;50.104;8.074;2023-07-29T12:15:25;1.88;;;1.20;;
74707;SDS011;63360;50.104;8.074;2023-07-29T12:17:57;4.93;;;1.60;;
74707;SDS011;63360;50.104;8.074;2023-07-29T12:20:25;2.23;;;1.20;;
74707;SDS011;63360;50.104;8.074;2023-07-29T12:22:56;2.60;;;1.25;;
74707;SDS011;63360;50.104;8.074;2023-07-29T12:25:25;2.53;;;1.20;;
74707;SDS011;63360;50.104;8.074;2023-07-29T12:27:52;1.80;;;1.15;;
74707;SDS011;63360;50.104;8.074;2023-07-29T12:30:22;3.72;;;1.17;;
74707;SDS011;63360;50.104;8.074;2023-07-29T12:32:49;1.50;;;0.93;;
74707;SDS011;63360;50.104;8.074;2023-07-29T12:35:16;1.88;;;1.00;;
74707;SDS011;63360;50.104;8.074;2023-07-29T12:37:42;3.17;;;1.23;;
74707;SDS011;63360;50.104;8.074;2023-07-29T12:40:22;3.47;;;1.10;;
74707;SDS011;63360;50.104;8.074;2023-07-29T12:42:51;3.28;;;1.50;;
74707;SDS011;63360;50.104;8.074;2023-07-29T12:45:18;3.00;;;1.30;;
74707;SDS011;63360;50.104;8.074;2023-07-29T12:47:45;4.30;;;1.27;;
74707;SDS011;63360;50.104;8.074;2023-07-29T12:50:11;1.70;;;1.10;;
74707;SDS011;63360;50.104;8.074;2023-07-29T12:52:38;2.42;;;1.20;;
74707;SDS011;63360;50.104;8.074;2023-07-29T12:55:05;2.45;;;1.17;;
74707;SDS011;63360;50.104;8.074;2023-07-29T12:57:32;4.60;;;1.20;;
74707;SDS011;63360;50.104;8.074;2023-07-29T12:59:58;4.40;;;1.23;;
74707;SDS011;63360;50.104;8.074;2023-07-29T13:02:25;2.80;;;1.23;;
74707;SDS011;63360;50.104;8.074;2023-07-29T13:04:51;3.13;;;1.30;;
74707;SDS011;63360;50.104;8.074;2023-07-29T13:07:18;3.20;;;1.33;;
74707;SDS011;63360;50.104;8.074;2023-07-29T13:09:44;2.47;;;1.40;;
74707;SDS011;63360;50.104;8.074;2023-07-29T13:12:11;3.58;;;1.15;;
74707;SDS011;63360;50.104;8.074;2023-07-29T13:14:37;4.47;;;1.27;;
74707;SDS011;63360;50.104;8.074;2023-07-29T13:17:04;3.70;;;1.30;;
74707;SDS011;63360;50.104;8.074;2023-07-29T13:19:30;2.85;;;1.10;;
74707;SDS011;63360;50.104;8.074;2023-07-29T13:21:57;2.20;;;1.17;;
74707;SDS011;63360;50.104;8.074;2023-07-29T13:24:23;3.78;;;1.17;;
74707;SDS011;63360;50.104;8.074;2023-07-29T13:26:50;3.13;;;1.23;;
74707;SDS011;63360;50.104;8.074;2023-07-29T13:29:16;5.15;;;1.30;;
74707;SDS011;63360;50.104;8.074;2023-07-29T13:31:42;2.03;;;1.13;;
74707;SDS011;63360;50.104;8.074;2023-07-29T13:34:09;2.00;;;1.13;;
74707;SDS011;63360;50.104;8.074;2023-07-29T13:36:35;2.15;;;1.40;;
74707;SDS011;63360;50.104;8.074;2023-07-29T13:39:02;3.47;;;1.13;;
74707;SDS011;63360;50.104;8.074;2023-07-29T13:41:29;2.40;;;1.02;;
74707;SDS011;63360;50.104;8.074;2023-07-29T13:43:55;2.55;;;1.15;;
74707;SDS011;63360;50.104;8.074;2023-07-29T13:46:22;3.03;;;1.47;;
74707;SDS011;63360;50.104;8.074;2023-07-29T13:48:48;2.05;;;1.10;;
74707;SDS011;63360;50.104;8.074;2023-07-29T13:51:15;2.15;;;1.10;;
74707;SDS011;63360;50.104;8.074;2023-07-29T13:53:41;2.35;;;1.13;;
74707;SDS011;63360;50.104;8.074;2023-07-29T13:56:08;2.35;;;1.15;;
74707;SDS011;63360;50.104;8.074;2023-07-29T13:58:34;2.87;;;1.13;;
74707;SDS011;63360;50.104;8.074;2023-07-29T14:01:01;1.83;;;1.20;;
74707;SDS011;63360;50.104;8.074;2023-07-29T14:03:27;2.60;;;1.00;;
74707;SDS011;63360;50.104;8.074;2023-07-29T14:05:54;1.50;;;0.98;;
74707;SDS011;63360;50.104;8.074;2023-07-29T14:08:20;3.25;;;1.10;;
74707;SDS011;63360;50.104;8.074;2023-07-29T14:10:49;2.23;;;1.10;;
74707;SDS011;63360;50.104;8.074;2023-07-29T14:13:16;2.10;;;1.27;;
74707;SDS011;63360;50.104;8.074;2023-07-29T14:15:42;2.55;;;1.10;;
74707;SDS011;63360;50.104;8.074;2023-07-29T14:18:09;2.22;;;1.00;;
74707;SDS011;63360;50.104;8.074;2023-07-29T14:20:35;2.28;;;1.00;;
74707;SDS011;63360;50.104;8.074;2023-07-29T14:23:02;3.37;;;1.13;;
74707;SDS011;63360;50.104;8.074;2023-07-29T14:25:28;2.90;;;1.10;;
74707;SDS011;63360;50.104;8.074;2023-07-29T14:27:55;3.10;;;1.20;;
74707;SDS011;63360;50.104;8.074;2023-07-29T14:30:22;2.92;;;1.10;;
74707;SDS011;63360;50.104;8.074;2023-07-29T14:32:48;2.08;;;1.00;;
74707;SDS011;63360;50.104;8.074;2023-07-29T14:35:15;3.00;;;1.00;;
74707;SDS011;63360;50.104;8.074;2023-07-29T14:37:41;2.72;;;1.10;;
74707;SDS011;63360;50.104;8.074;2023-07-29T14:40:08;2.50;;;1.00;;
74707;SDS011;63360;50.104;8.074;2023-07-29T14:42:34;2.05;;;1.00;;
74707;SDS011;63360;50.104;8.074;2023-07-29T14:45:01;2.67;;;1.20;;
74707;SDS011;63360;50.104;8.074;2023-07-29T14:47:28;3.37;;;1.10;;
74707;SDS011;63360;50.104;8.074;2023-07-29T14:49:54;2.83;;;1.20;;
74707;SDS011;63360;50.104;8.074;2023-07-29T14:52:21;2.00;;;0.90;;
74707;SDS011;63360;50.104;8.074;2023-07-29T14:54:47;2.63;;;0.90;;